sensor_id;sensor_type;location;lat;lon;timestamp;temperature;humidity
69382;DHT22;56560;50.692;12.844;2022-08-21T00:02:14;17.70;87.60
69382;DHT22;56560;50.692;12.844;2022-08-21T00:04:40;17.70;87.50
69382;DHT22;56560;50.692;12.844;2022-08-21T00:07:05;17.70;87.40
69382;DHT22;56560;50.692;12.844;2022-08-21T00:09:31;17.70;87.20
69382;DHT22;56560;50.692;12.844;2022-08-21T00:11:57;17.70;87.30
69382;DHT22;56560;50.692;12.844;2022-08-21T00:14:23;17.70;87.30
69382;DHT22;56560;50.692;12.844;2022-08-21T00:16:48;17.70;87.30
69382;DHT22;56560;50.692;12.844;2022-08-21T00:19:14;17.70;87.40
69382;DHT22;56560;50.692;12.844;2022-08-21T00:21:39;17.70;87.50
69382;DHT22;56560;50.692;12.844;2022-08-21T00:24:05;17.60;87.70
69382;DHT22;56560;50.692;12.844;2022-08-21T00:26:31;17.60;87.60
69382;DHT22;56560;50.692;12.844;2022-08-21T00:28:57;17.60;87.60
69382;DHT22;56560;50.692;12.844;2022-08-21T00:31:22;17.60;87.80
69382;DHT22;56560;50.692;12.844;2022-08-21T00:33:48;17.60;88.00
69382;DHT22;56560;50.692;12.844;2022-08-21T00:36:14;17.60;87.90
69382;DHT22;56560;50.692;12.844;2022-08-21T00:38:40;17.60;88.10
69382;DHT22;56560;50.692;12.844;2022-08-21T00:41:08;17.60;88.20
69382;DHT22;56560;50.692;12.844;2022-08-21T00:43:36;17.60;88.10
69382;DHT22;56560;50.692;12.844;2022-08-21T00:46:03;17.50;88.10
69382;DHT22;56560;50.692;12.844;2022-08-21T00:48:30;17.50;88.20
69382;DHT22;56560;50.692;12.844;2022-08-21T00:51:00;17.50;88.10
69382;DHT22;56560;50.692;12.844;2022-08-21T00:53:28;17.50;88.10
69382;DHT22;56560;50.692;12.844;2022-08-21T00:55:55;17.60;87.90
69382;DHT22;56560;50.692;12.844;2022-08-21T00:58:22;17.60;87.90
69382;DHT22;56560;50.692;12.844;2022-08-21T01:00:49;17.60;87.60
69382;DHT22;56560;50.692;12.844;2022-08-21T01:03:20;17.60;87.70
69382;DHT22;56560;50.692;12.844;2022-08-21T01:05:46;17.60;87.90
69382;DHT22;56560;50.692;12.844;2022-08-21T01:08:13;17.60;87.70
69382;DHT22;56560;50.692;12.844;2022-08-21T01:10:41;17.60;87.70
69382;DHT22;56560;50.692;12.844;2022-08-21T01:13:08;17.50;87.90
69382;DHT22;56560;50.692;12.844;2022-08-21T01:15:37;17.50;88.10
69382;DHT22;56560;50.692;12.844;2022-08-21T01:18:06;17.50;87.90
69382;DHT22;56560;50.692;12.844;2022-08-21T01:20:33;17.50;88.00
69382;DHT22;56560;50.692;12.844;2022-08-21T01:23:04;17.50;88.10
69382;DHT22;56560;50.692;12.844;2022-08-21T01:25:30;17.50;88.10
69382;DHT22;56560;50.692;12.844;2022-08-21T01:27:57;17.50;88.20
69382;DHT22;56560;50.692;12.844;2022-08-21T01:30:26;17.40;88.20
69382;DHT22;56560;50.692;12.844;2022-08-21T01:32:53;17.40;88.30
69382;DHT22;56560;50.692;12.844;2022-08-21T01:35:20;17.40;88.20
69382;DHT22;56560;50.692;12.844;2022-08-21T01:37:47;17.40;88.30
69382;DHT22;56560;50.692;12.844;2022-08-21T01:40:13;17.40;88.50
69382;DHT22;56560;50.692;12.844;2022-08-21T01:42:41;17.40;88.30
69382;DHT22;56560;50.692;12.844;2022-08-21T01:45:08;17.40;88.40
69382;DHT22;56560;50.692;12.844;2022-08-21T01:47:34;17.40;88.50
69382;DHT22;56560;50.692;12.844;2022-08-21T01:50:00;17.50;88.40
69382;DHT22;56560;50.692;12.844;2022-08-21T01:52:26;17.60;88.20
69382;DHT22;56560;50.692;12.844;2022-08-21T01:54:52;17.70;88.40
69382;DHT22;56560;50.692;12.844;2022-08-21T01:57:17;17.70;88.40
69382;DHT22;56560;50.692;12.844;2022-08-21T01:59:43;17.70;88.30
69382;DHT22;56560;50.692;12.844;2022-08-21T02:02:09;17.80;88.20
69382;DHT22;56560;50.692;12.844;2022-08-21T02:04:34;17.80;88.10
69382;DHT22;56560;50.692;12.844;2022-08-21T02:07:01;17.90;88.30
69382;DHT22;56560;50.692;12.844;2022-08-21T02:09:27;17.90;88.30
69382;DHT22;56560;50.692;12.844;2022-08-21T02:11:53;17.90;88.40
69382;DHT22;56560;50.692;12.844;2022-08-21T02:14:20;18.00;88.40
69382;DHT22;56560;50.692;12.844;2022-08-21T02:16:46;18.00;88.30
69382;DHT22;56560;50.692;12.844;2022-08-21T02:19:13;18.00;88.30
69382;DHT22;56560;50.692;12.844;2022-08-21T02:21:40;18.00;88.40
69382;DHT22;56560;50.692;12.844;2022-08-21T02:24:07;18.00;88.40
69382;DHT22;56560;50.692;12.844;2022-08-21T02:26:33;18.00;88.50
69382;DHT22;56560;50.692;12.844;2022-08-21T02:28:59;18.00;88.40
69382;DHT22;56560;50.692;12.844;2022-08-21T02:31:25;18.00;88.30
69382;DHT22;56560;50.692;12.844;2022-08-21T02:33:51;17.90;88.20
69382;DHT22;56560;50.692;12.844;2022-08-21T02:36:17;17.90;88.60
69382;DHT22;56560;50.692;12.844;2022-08-21T02:38:44;18.00;88.30
69382;DHT22;56560;50.692;12.844;2022-08-21T02:41:16;18.00;88.10
69382;DHT22;56560;50.692;12.844;2022-08-21T02:43:42;18.00;88.10
69382;DHT22;56560;50.692;12.844;2022-08-21T02:46:09;17.90;88.30
69382;DHT22;56560;50.692;12.844;2022-08-21T02:48:36;18.00;88.40
69382;DHT22;56560;50.692;12.844;2022-08-21T02:51:08;18.00;88.50
69382;DHT22;56560;50.692;12.844;2022-08-21T02:53:34;18.00;88.10
69382;DHT22;56560;50.692;12.844;2022-08-21T02:56:03;18.10;88.10
69382;DHT22;56560;50.692;12.844;2022-08-21T02:58:33;18.00;88.30
69382;DHT22;56560;50.692;12.844;2022-08-21T03:00:59;18.10;88.20
69382;DHT22;56560;50.692;12.844;2022-08-21T03:03:26;18.10;88.10
69382;DHT22;56560;50.692;12.844;2022-08-21T03:05:52;18.10;87.70
69382;DHT22;56560;50.692;12.844;2022-08-21T03:08:19;18.10;87.90
69382;DHT22;56560;50.692;12.844;2022-08-21T03:10:48;18.10;87.80
69382;DHT22;56560;50.692;12.844;2022-08-21T03:13:15;18.10;87.60
69382;DHT22;56560;50.692;12.844;2022-08-21T03:15:41;18.10;87.40
69382;DHT22;56560;50.692;12.844;2022-08-21T03:18:07;18.10;87.40
69382;DHT22;56560;50.692;12.844;2022-08-21T03:20:35;18.10;87.60
69382;DHT22;56560;50.692;12.844;2022-08-21T03:23:02;18.10;87.40
69382;DHT22;56560;50.692;12.844;2022-08-21T03:25:29;18.00;87.70
69382;DHT22;56560;50.692;12.844;2022-08-21T03:27:59;18.10;87.60
69382;DHT22;56560;50.692;12.844;2022-08-21T03:30:25;18.10;87.50
69382;DHT22;56560;50.692;12.844;2022-08-21T03:32:51;18.10;86.90
69382;DHT22;56560;50.692;12.844;2022-08-21T03:35:17;18.10;86.90
69382;DHT22;56560;50.692;12.844;2022-08-21T03:37:43;18.20;86.70
69382;DHT22;56560;50.692;12.844;2022-08-21T03:40:10;18.10;86.70
69382;DHT22;56560;50.692;12.844;2022-08-21T03:42:37;18.10;86.70
69382;DHT22;56560;50.692;12.844;2022-08-21T03:45:04;18.10;86.80
69382;DHT22;56560;50.692;12.844;2022-08-21T03:47:30;18.10;86.60
69382;DHT22;56560;50.692;12.844;2022-08-21T03:49:56;18.00;87.00
69382;DHT22;56560;50.692;12.844;2022-08-21T03:52:22;17.90;87.30
69382;DHT22;56560;50.692;12.844;2022-08-21T03:54:48;17.90;87.40
69382;DHT22;56560;50.692;12.844;2022-08-21T03:57:15;18.00;87.70
69382;DHT22;56560;50.692;12.844;2022-08-21T03:59:41;18.00;87.40
69382;DHT22;56560;50.692;12.844;2022-08-21T04:02:08;18.00;86.70
69382;DHT22;56560;50.692;12.844;2022-08-21T04:04:34;18.00;86.70
69382;DHT22;56560;50.692;12.844;2022-08-21T04:07:00;17.90;86.90
69382;DHT22;56560;50.692;12.844;2022-08-21T04:09:26;18.00;86.50
69382;DHT22;56560;50.692;12.844;2022-08-21T04:11:52;18.00;86.30
69382;DHT22;56560;50.692;12.844;2022-08-21T04:14:18;18.00;86.30
69382;DHT22;56560;50.692;12.844;2022-08-21T04:16:44;18.00;86.00
69382;DHT22;56560;50.692;12.844;2022-08-21T04:19:11;18.00;86.20
69382;DHT22;56560;50.692;12.844;2022-08-21T04:21:39;18.10;86.00
69382;DHT22;56560;50.692;12.844;2022-08-21T04:24:06;18.10;85.80
69382;DHT22;56560;50.692;12.844;2022-08-21T04:26:33;18.20;85.60
69382;DHT22;56560;50.692;12.844;2022-08-21T04:29:00;18.20;85.80
69382;DHT22;56560;50.692;12.844;2022-08-21T04:31:28;18.20;85.70
69382;DHT22;56560;50.692;12.844;2022-08-21T04:33:54;18.20;85.60
69382;DHT22;56560;50.692;12.844;2022-08-21T04:36:21;18.20;85.30
69382;DHT22;56560;50.692;12.844;2022-08-21T04:38:48;18.20;85.40
69382;DHT22;56560;50.692;12.844;2022-08-21T04:41:14;18.20;85.10
69382;DHT22;56560;50.692;12.844;2022-08-21T04:43:40;18.20;85.50
69382;DHT22;56560;50.692;12.844;2022-08-21T04:46:06;18.20;85.30
69382;DHT22;56560;50.692;12.844;2022-08-21T04:48:32;18.30;85.40
69382;DHT22;56560;50.692;12.844;2022-08-21T04:51:17;18.30;85.40
69382;DHT22;56560;50.692;12.844;2022-08-21T04:53:48;18.30;84.90
69382;DHT22;56560;50.692;12.844;2022-08-21T04:56:22;18.30;85.30
69382;DHT22;56560;50.692;12.844;2022-08-21T04:58:50;18.30;85.00
69382;DHT22;56560;50.692;12.844;2022-08-21T05:01:20;18.30;85.00
69382;DHT22;56560;50.692;12.844;2022-08-21T05:03:48;18.30;84.80
69382;DHT22;56560;50.692;12.844;2022-08-21T05:06:15;18.40;84.80
69382;DHT22;56560;50.692;12.844;2022-08-21T05:08:43;18.40;84.70
69382;DHT22;56560;50.692;12.844;2022-08-21T05:11:10;18.40;84.80
69382;DHT22;56560;50.692;12.844;2022-08-21T05:13:36;18.40;85.10
69382;DHT22;56560;50.692;12.844;2022-08-21T05:16:02;18.40;84.90
69382;DHT22;56560;50.692;12.844;2022-08-21T05:18:27;18.40;85.30
69382;DHT22;56560;50.692;12.844;2022-08-21T05:20:53;18.40;85.20
69382;DHT22;56560;50.692;12.844;2022-08-21T05:23:19;18.50;85.10
69382;DHT22;56560;50.692;12.844;2022-08-21T05:25:45;18.50;85.00
69382;DHT22;56560;50.692;12.844;2022-08-21T05:28:10;18.60;85.10
69382;DHT22;56560;50.692;12.844;2022-08-21T05:30:37;18.60;84.50
69382;DHT22;56560;50.692;12.844;2022-08-21T05:33:04;18.60;84.60
69382;DHT22;56560;50.692;12.844;2022-08-21T05:35:30;18.60;83.80
69382;DHT22;56560;50.692;12.844;2022-08-21T05:37:58;18.60;84.40
69382;DHT22;56560;50.692;12.844;2022-08-21T05:40:24;18.60;84.50
69382;DHT22;56560;50.692;12.844;2022-08-21T05:42:50;18.60;83.70
69382;DHT22;56560;50.692;12.844;2022-08-21T05:45:16;18.60;84.10
69382;DHT22;56560;50.692;12.844;2022-08-21T05:47:42;18.60;84.20
69382;DHT22;56560;50.692;12.844;2022-08-21T05:50:08;18.60;84.30
69382;DHT22;56560;50.692;12.844;2022-08-21T05:52:34;18.70;84.00
69382;DHT22;56560;50.692;12.844;2022-08-21T05:54:59;18.80;83.50
69382;DHT22;56560;50.692;12.844;2022-08-21T05:57:25;18.90;82.60
69382;DHT22;56560;50.692;12.844;2022-08-21T05:59:52;18.90;82.30
69382;DHT22;56560;50.692;12.844;2022-08-21T06:02:19;18.90;82.40
69382;DHT22;56560;50.692;12.844;2022-08-21T06:04:45;18.90;82.60
69382;DHT22;56560;50.692;12.844;2022-08-21T06:07:11;18.90;82.80
69382;DHT22;56560;50.692;12.844;2022-08-21T06:09:37;18.90;82.20
69382;DHT22;56560;50.692;12.844;2022-08-21T06:12:05;19.10;82.10
69382;DHT22;56560;50.692;12.844;2022-08-21T06:14:31;19.30;81.70
69382;DHT22;56560;50.692;12.844;2022-08-21T06:17:09;19.50;80.70
69382;DHT22;56560;50.692;12.844;2022-08-21T06:19:36;19.80;80.10
69382;DHT22;56560;50.692;12.844;2022-08-21T06:22:02;19.80;78.70
69382;DHT22;56560;50.692;12.844;2022-08-21T06:24:28;19.90;78.60
69382;DHT22;56560;50.692;12.844;2022-08-21T06:26:55;19.90;78.50
69382;DHT22;56560;50.692;12.844;2022-08-21T06:29:21;19.90;78.00
69382;DHT22;56560;50.692;12.844;2022-08-21T06:31:48;19.90;78.30
69382;DHT22;56560;50.692;12.844;2022-08-21T06:34:14;20.10;78.00
69382;DHT22;56560;50.692;12.844;2022-08-21T06:36:40;20.20;77.70
69382;DHT22;56560;50.692;12.844;2022-08-21T06:39:06;20.20;76.60
69382;DHT22;56560;50.692;12.844;2022-08-21T06:41:32;20.40;76.70
69382;DHT22;56560;50.692;12.844;2022-08-21T06:43:58;20.50;75.90
69382;DHT22;56560;50.692;12.844;2022-08-21T06:46:26;20.60;75.20
69382;DHT22;56560;50.692;12.844;2022-08-21T06:48:52;20.60;75.40
69382;DHT22;56560;50.692;12.844;2022-08-21T06:51:18;20.50;74.90
69382;DHT22;56560;50.692;12.844;2022-08-21T06:53:44;20.30;75.00
69382;DHT22;56560;50.692;12.844;2022-08-21T06:56:10;20.20;75.60
69382;DHT22;56560;50.692;12.844;2022-08-21T06:58:36;20.20;76.60
69382;DHT22;56560;50.692;12.844;2022-08-21T07:01:02;20.20;76.40
69382;DHT22;56560;50.692;12.844;2022-08-21T07:03:40;20.40;75.80
69382;DHT22;56560;50.692;12.844;2022-08-21T07:06:08;20.60;75.20
69382;DHT22;56560;50.692;12.844;2022-08-21T07:08:34;20.70;75.20
69382;DHT22;56560;50.692;12.844;2022-08-21T07:11:03;20.70;74.80
69382;DHT22;56560;50.692;12.844;2022-08-21T07:13:32;20.80;74.20
69382;DHT22;56560;50.692;12.844;2022-08-21T07:15:58;20.80;74.10
69382;DHT22;56560;50.692;12.844;2022-08-21T07:18:24;20.70;74.40
69382;DHT22;56560;50.692;12.844;2022-08-21T07:20:49;20.60;74.80
69382;DHT22;56560;50.692;12.844;2022-08-21T07:23:24;20.60;73.90
69382;DHT22;56560;50.692;12.844;2022-08-21T07:25:51;20.70;73.90
69382;DHT22;56560;50.692;12.844;2022-08-21T07:28:16;20.70;74.00
69382;DHT22;56560;50.692;12.844;2022-08-21T07:30:42;20.80;74.50
69382;DHT22;56560;50.692;12.844;2022-08-21T07:33:08;21.00;74.70
69382;DHT22;56560;50.692;12.844;2022-08-21T07:35:34;21.20;72.90
69382;DHT22;56560;50.692;12.844;2022-08-21T07:38:00;21.30;73.10
69382;DHT22;56560;50.692;12.844;2022-08-21T07:40:25;21.40;72.40
69382;DHT22;56560;50.692;12.844;2022-08-21T07:42:51;21.60;71.10
69382;DHT22;56560;50.692;12.844;2022-08-21T07:45:21;21.70;71.10
69382;DHT22;56560;50.692;12.844;2022-08-21T07:47:48;21.90;70.80
69382;DHT22;56560;50.692;12.844;2022-08-21T07:50:14;21.90;70.50
69382;DHT22;56560;50.692;12.844;2022-08-21T07:52:41;22.00;70.30
69382;DHT22;56560;50.692;12.844;2022-08-21T07:55:09;22.10;70.00
69382;DHT22;56560;50.692;12.844;2022-08-21T07:57:36;22.30;68.00
69382;DHT22;56560;50.692;12.844;2022-08-21T08:00:04;22.50;68.10
69382;DHT22;56560;50.692;12.844;2022-08-21T08:02:30;22.70;66.40
69382;DHT22;56560;50.692;12.844;2022-08-21T08:05:08;22.80;66.10
69382;DHT22;56560;50.692;12.844;2022-08-21T08:07:35;22.80;66.00
69382;DHT22;56560;50.692;12.844;2022-08-21T08:10:03;23.00;65.60
69382;DHT22;56560;50.692;12.844;2022-08-21T08:12:29;23.20;64.90
69382;DHT22;56560;50.692;12.844;2022-08-21T08:14:59;23.40;63.10
69382;DHT22;56560;50.692;12.844;2022-08-21T08:17:26;23.40;63.00
69382;DHT22;56560;50.692;12.844;2022-08-21T08:19:52;23.30;63.20
69382;DHT22;56560;50.692;12.844;2022-08-21T08:22:20;23.70;62.80
69382;DHT22;56560;50.692;12.844;2022-08-21T08:24:47;23.90;61.10
69382;DHT22;56560;50.692;12.844;2022-08-21T08:27:14;24.00;61.10
69382;DHT22;56560;50.692;12.844;2022-08-21T08:29:39;23.70;60.90
69382;DHT22;56560;50.692;12.844;2022-08-21T08:32:06;23.30;62.40
69382;DHT22;56560;50.692;12.844;2022-08-21T08:34:35;23.40;62.70
69382;DHT22;56560;50.692;12.844;2022-08-21T08:37:02;23.60;62.60
69382;DHT22;56560;50.692;12.844;2022-08-21T08:39:29;23.60;62.10
69382;DHT22;56560;50.692;12.844;2022-08-21T08:44:30;23.70;62.50
69382;DHT22;56560;50.692;12.844;2022-08-21T08:46:56;23.60;62.10
69382;DHT22;56560;50.692;12.844;2022-08-21T08:49:37;23.60;61.50
69382;DHT22;56560;50.692;12.844;2022-08-21T08:52:20;23.80;61.20
69382;DHT22;56560;50.692;12.844;2022-08-21T08:54:58;23.90;60.80
69382;DHT22;56560;50.692;12.844;2022-08-21T08:57:25;24.20;60.80
69382;DHT22;56560;50.692;12.844;2022-08-21T08:59:56;24.40;59.80
69382;DHT22;56560;50.692;12.844;2022-08-21T09:02:23;24.60;59.90
69382;DHT22;56560;50.692;12.844;2022-08-21T09:04:50;24.50;58.10
69382;DHT22;56560;50.692;12.844;2022-08-21T09:07:40;24.10;59.10
69382;DHT22;56560;50.692;12.844;2022-08-21T09:21:36;22.80;64.80
69382;DHT22;56560;50.692;12.844;2022-08-21T09:24:16;22.90;63.40
69382;DHT22;56560;50.692;12.844;2022-08-21T09:29:21;23.40;62.20
69382;DHT22;56560;50.692;12.844;2022-08-21T09:31:47;23.10;63.20
69382;DHT22;56560;50.692;12.844;2022-08-21T09:34:27;22.80;63.20
69382;DHT22;56560;50.692;12.844;2022-08-21T09:36:54;22.60;64.30
69382;DHT22;56560;50.692;12.844;2022-08-21T09:39:30;22.70;63.70
69382;DHT22;56560;50.692;12.844;2022-08-21T09:42:01;22.80;59.10
69382;DHT22;56560;50.692;12.844;2022-08-21T09:44:29;23.10;60.80
69382;DHT22;56560;50.692;12.844;2022-08-21T09:46:55;23.60;57.80
69382;DHT22;56560;50.692;12.844;2022-08-21T09:49:33;24.30;56.20
69382;DHT22;56560;50.692;12.844;2022-08-21T09:52:00;24.90;55.00
69382;DHT22;56560;50.692;12.844;2022-08-21T09:54:31;25.50;53.90
69382;DHT22;56560;50.692;12.844;2022-08-21T09:59:42;26.30;52.60
69382;DHT22;56560;50.692;12.844;2022-08-21T10:02:27;26.10;50.70
69382;DHT22;56560;50.692;12.844;2022-08-21T10:04:56;25.90;51.50
69382;DHT22;56560;50.692;12.844;2022-08-21T10:07:25;25.70;51.60
69382;DHT22;56560;50.692;12.844;2022-08-21T10:10:06;25.60;51.30
69382;DHT22;56560;50.692;12.844;2022-08-21T10:15:24;24.30;55.70
69382;DHT22;56560;50.692;12.844;2022-08-21T10:18:02;24.00;55.50
69382;DHT22;56560;50.692;12.844;2022-08-21T10:20:37;23.90;55.90
69382;DHT22;56560;50.692;12.844;2022-08-21T10:30:54;25.50;50.50
69382;DHT22;56560;50.692;12.844;2022-08-21T10:52:02;24.40;52.50
69382;DHT22;56560;50.692;12.844;2022-08-21T10:54:35;24.00;54.50
69382;DHT22;56560;50.692;12.844;2022-08-21T10:57:14;24.40;54.40
69382;DHT22;56560;50.692;12.844;2022-08-21T10:59:57;25.40;52.30
69382;DHT22;56560;50.692;12.844;2022-08-21T11:02:37;26.30;49.90
69382;DHT22;56560;50.692;12.844;2022-08-21T11:08:13;26.00;49.50
69382;DHT22;56560;50.692;12.844;2022-08-21T11:11:02;25.30;49.90
69382;DHT22;56560;50.692;12.844;2022-08-21T11:16:26;25.10;50.60
69382;DHT22;56560;50.692;12.844;2022-08-21T11:21:57;26.90;47.50
69382;DHT22;56560;50.692;12.844;2022-08-21T11:29:59;27.40;45.30
69382;DHT22;56560;50.692;12.844;2022-08-21T11:38:28;26.60;45.50
69382;DHT22;56560;50.692;12.844;2022-08-21T11:44:10;26.80;45.10
69382;DHT22;56560;50.692;12.844;2022-08-21T11:46:49;26.70;45.40
69382;DHT22;56560;50.692;12.844;2022-08-21T11:49:23;27.10;44.30
69382;DHT22;56560;50.692;12.844;2022-08-21T11:51:59;27.80;44.10
69382;DHT22;56560;50.692;12.844;2022-08-21T11:57:14;29.30;40.90
69382;DHT22;56560;50.692;12.844;2022-08-21T12:00:01;29.00;39.70
69382;DHT22;56560;50.692;12.844;2022-08-21T12:02:33;28.50;41.90
69382;DHT22;56560;50.692;12.844;2022-08-21T12:05:06;28.90;41.40
69382;DHT22;56560;50.692;12.844;2022-08-21T12:07:36;29.70;40.70
69382;DHT22;56560;50.692;12.844;2022-08-21T12:10:11;29.90;39.10
69382;DHT22;56560;50.692;12.844;2022-08-21T12:12:39;29.00;39.80
69382;DHT22;56560;50.692;12.844;2022-08-21T12:15:15;28.80;41.00
69382;DHT22;56560;50.692;12.844;2022-08-21T12:17:53;29.30;41.20
69382;DHT22;56560;50.692;12.844;2022-08-21T12:21:17;30.00;38.90
69382;DHT22;56560;50.692;12.844;2022-08-21T12:24:36;29.30;39.10
69382;DHT22;56560;50.692;12.844;2022-08-21T12:26:51;28.90;41.10
69382;DHT22;56560;50.692;12.844;2022-08-21T12:29:48;29.60;39.50
69382;DHT22;56560;50.692;12.844;2022-08-21T12:34:47;29.30;39.50
69382;DHT22;56560;50.692;12.844;2022-08-21T12:37:24;28.90;40.20
69382;DHT22;56560;50.692;12.844;2022-08-21T12:39:53;29.90;39.80
69382;DHT22;56560;50.692;12.844;2022-08-21T12:42:23;31.60;37.00
69382;DHT22;56560;50.692;12.844;2022-08-21T12:44:56;32.80;34.70
69382;DHT22;56560;50.692;12.844;2022-08-21T12:47:34;33.40;33.70
69382;DHT22;56560;50.692;12.844;2022-08-21T12:50:15;33.50;33.70
69382;DHT22;56560;50.692;12.844;2022-08-21T12:52:54;32.60;34.10
69382;DHT22;56560;50.692;12.844;2022-08-21T12:55:30;31.10;36.60
69382;DHT22;56560;50.692;12.844;2022-08-21T12:57:57;30.30;37.70
69382;DHT22;56560;50.692;12.844;2022-08-21T13:00:25;29.30;39.00
69382;DHT22;56560;50.692;12.844;2022-08-21T13:02:52;29.50;39.90
69382;DHT22;56560;50.692;12.844;2022-08-21T13:05:35;30.60;38.40
69382;DHT22;56560;50.692;12.844;2022-08-21T13:08:09;32.50;35.50
69382;DHT22;56560;50.692;12.844;2022-08-21T13:10:36;34.40;34.00
69382;DHT22;56560;50.692;12.844;2022-08-21T13:13:05;35.50;31.90
69382;DHT22;56560;50.692;12.844;2022-08-21T13:15:34;36.20;31.10
69382;DHT22;56560;50.692;12.844;2022-08-21T13:18:02;35.60;31.70
69382;DHT22;56560;50.692;12.844;2022-08-21T13:20:48;34.90;32.00
69382;DHT22;56560;50.692;12.844;2022-08-21T13:23:27;35.40;31.80
69382;DHT22;56560;50.692;12.844;2022-08-21T13:25:54;36.10;30.40
69382;DHT22;56560;50.692;12.844;2022-08-21T13:28:20;36.80;30.30
69382;DHT22;56560;50.692;12.844;2022-08-21T13:30:50;36.20;29.50
69382;DHT22;56560;50.692;12.844;2022-08-21T13:33:18;34.00;32.50
69382;DHT22;56560;50.692;12.844;2022-08-21T13:38:25;32.80;33.90
69382;DHT22;56560;50.692;12.844;2022-08-21T13:40:58;33.30;34.00
69382;DHT22;56560;50.692;12.844;2022-08-21T13:43:34;34.50;32.00
69382;DHT22;56560;50.692;12.844;2022-08-21T13:46:01;35.30;31.00
69382;DHT22;56560;50.692;12.844;2022-08-21T13:48:30;36.00;30.20
69382;DHT22;56560;50.692;12.844;2022-08-21T13:50:57;36.50;29.60
69382;DHT22;56560;50.692;12.844;2022-08-21T13:53:30;37.20;29.70
69382;DHT22;56560;50.692;12.844;2022-08-21T13:55:57;37.50;28.30
69382;DHT22;56560;50.692;12.844;2022-08-21T13:58:43;38.20;28.90
69382;DHT22;56560;50.692;12.844;2022-08-21T14:03:49;36.40;29.20
69382;DHT22;56560;50.692;12.844;2022-08-21T14:06:22;35.90;30.20
69382;DHT22;56560;50.692;12.844;2022-08-21T14:08:59;36.50;29.60
69382;DHT22;56560;50.692;12.844;2022-08-21T14:11:27;37.00;29.50
69382;DHT22;56560;50.692;12.844;2022-08-21T14:13:57;37.50;28.60
69382;DHT22;56560;50.692;12.844;2022-08-21T14:16:40;38.10;27.40
69382;DHT22;56560;50.692;12.844;2022-08-21T14:19:22;38.40;27.60
69382;DHT22;56560;50.692;12.844;2022-08-21T14:21:48;38.80;26.30
69382;DHT22;56560;50.692;12.844;2022-08-21T14:24:26;38.90;26.70
69382;DHT22;56560;50.692;12.844;2022-08-21T14:27:04;38.80;25.70
69382;DHT22;56560;50.692;12.844;2022-08-21T14:29:40;39.10;26.10
69382;DHT22;56560;50.692;12.844;2022-08-21T14:32:21;39.10;25.70
69382;DHT22;56560;50.692;12.844;2022-08-21T14:34:47;38.50;26.40
69382;DHT22;56560;50.692;12.844;2022-08-21T14:37:13;37.10;28.00
69382;DHT22;56560;50.692;12.844;2022-08-21T14:39:39;36.60;28.80
69382;DHT22;56560;50.692;12.844;2022-08-21T14:42:04;36.00;29.40
69382;DHT22;56560;50.692;12.844;2022-08-21T14:44:30;36.00;29.80
69382;DHT22;56560;50.692;12.844;2022-08-21T14:46:59;36.70;29.10
69382;DHT22;56560;50.692;12.844;2022-08-21T14:49:26;37.10;28.50
69382;DHT22;56560;50.692;12.844;2022-08-21T14:51:53;37.40;27.70
69382;DHT22;56560;50.692;12.844;2022-08-21T14:54:26;38.00;27.00
69382;DHT22;56560;50.692;12.844;2022-08-21T14:56:52;38.40;27.30
69382;DHT22;56560;50.692;12.844;2022-08-21T14:59:19;38.60;26.90
69382;DHT22;56560;50.692;12.844;2022-08-21T15:01:45;39.10;26.40
69382;DHT22;56560;50.692;12.844;2022-08-21T15:04:10;38.50;26.20
69382;DHT22;56560;50.692;12.844;2022-08-21T15:06:36;36.10;28.40
69382;DHT22;56560;50.692;12.844;2022-08-21T15:09:02;33.80;30.90
69382;DHT22;56560;50.692;12.844;2022-08-21T15:11:30;33.60;31.70
69382;DHT22;56560;50.692;12.844;2022-08-21T15:13:59;34.20;31.80
69382;DHT22;56560;50.692;12.844;2022-08-21T15:16:30;35.20;30.90
69382;DHT22;56560;50.692;12.844;2022-08-21T15:18:57;35.50;29.50
69382;DHT22;56560;50.692;12.844;2022-08-21T15:21:23;34.10;30.90
69382;DHT22;56560;50.692;12.844;2022-08-21T15:23:49;32.80;31.10
69382;DHT22;56560;50.692;12.844;2022-08-21T15:26:14;33.10;31.40
69382;DHT22;56560;50.692;12.844;2022-08-21T15:28:40;34.40;30.50
69382;DHT22;56560;50.692;12.844;2022-08-21T15:31:06;35.90;29.30
69382;DHT22;56560;50.692;12.844;2022-08-21T15:33:32;37.30;27.80
69382;DHT22;56560;50.692;12.844;2022-08-21T15:35:58;37.70;27.00
69382;DHT22;56560;50.692;12.844;2022-08-21T15:38:24;37.00;26.60
69382;DHT22;56560;50.692;12.844;2022-08-21T15:40:50;36.20;29.00
69382;DHT22;56560;50.692;12.844;2022-08-21T15:43:25;36.60;29.10
69382;DHT22;56560;50.692;12.844;2022-08-21T15:45:51;37.20;27.50
69382;DHT22;56560;50.692;12.844;2022-08-21T15:48:17;37.70;26.90
69382;DHT22;56560;50.692;12.844;2022-08-21T15:50:43;37.50;26.70
69382;DHT22;56560;50.692;12.844;2022-08-21T15:53:09;37.00;27.50
69382;DHT22;56560;50.692;12.844;2022-08-21T15:55:35;36.20;27.60
69382;DHT22;56560;50.692;12.844;2022-08-21T15:58:01;36.20;27.50
69382;DHT22;56560;50.692;12.844;2022-08-21T16:00:31;35.90;27.90
69382;DHT22;56560;50.692;12.844;2022-08-21T16:02:58;35.90;28.20
69382;DHT22;56560;50.692;12.844;2022-08-21T16:05:25;35.80;28.10
69382;DHT22;56560;50.692;12.844;2022-08-21T16:07:51;35.80;28.30
69382;DHT22;56560;50.692;12.844;2022-08-21T16:10:22;36.40;27.50
69382;DHT22;56560;50.692;12.844;2022-08-21T16:12:51;36.70;27.50
69382;DHT22;56560;50.692;12.844;2022-08-21T16:15:18;36.90;26.80
69382;DHT22;56560;50.692;12.844;2022-08-21T16:17:46;36.20;27.30
69382;DHT22;56560;50.692;12.844;2022-08-21T16:20:20;35.30;28.50
69382;DHT22;56560;50.692;12.844;2022-08-21T16:22:47;34.90;28.70
69382;DHT22;56560;50.692;12.844;2022-08-21T16:25:14;35.20;28.30
69382;DHT22;56560;50.692;12.844;2022-08-21T16:27:41;35.50;28.10
69382;DHT22;56560;50.692;12.844;2022-08-21T16:30:08;36.10;28.20
69382;DHT22;56560;50.692;12.844;2022-08-21T16:32:34;36.90;27.20
69382;DHT22;56560;50.692;12.844;2022-08-21T16:35:00;37.10;27.50
69382;DHT22;56560;50.692;12.844;2022-08-21T16:37:26;36.60;27.20
69382;DHT22;56560;50.692;12.844;2022-08-21T16:39:52;34.10;28.70
69382;DHT22;56560;50.692;12.844;2022-08-21T16:42:21;31.40;31.50
69382;DHT22;56560;50.692;12.844;2022-08-21T16:44:48;29.20;33.70
69382;DHT22;56560;50.692;12.844;2022-08-21T16:47:14;27.40;36.50
69382;DHT22;56560;50.692;12.844;2022-08-21T16:49:40;26.30;38.10